sensor_id;sensor_type;location;lat;lon;timestamp;temperature;humidity
12622;DHT22;6376;48.182;-1.644;2022-08-16T00:00:56;22.60;70.70
12622;DHT22;6376;48.182;-1.644;2022-08-16T00:03:21;22.60;70.50
12622;DHT22;6376;48.182;-1.644;2022-08-16T00:05:47;22.60;70.70
12622;DHT22;6376;48.182;-1.644;2022-08-16T00:08:13;22.60;70.70
12622;DHT22;6376;48.182;-1.644;2022-08-16T00:10:39;22.60;70.90
12622;DHT22;6376;48.182;-1.644;2022-08-16T00:13:07;22.60;70.70
12622;DHT22;6376;48.182;-1.644;2022-08-16T00:15:41;22.50;70.60
12622;DHT22;6376;48.182;-1.644;2022-08-16T00:18:08;22.60;70.80
12622;DHT22;6376;48.182;-1.644;2022-08-16T00:20:35;22.60;70.90
12622;DHT22;6376;48.182;-1.644;2022-08-16T00:23:02;22.50;70.90
12622;DHT22;6376;48.182;-1.644;2022-08-16T00:25:28;22.60;70.80
12622;DHT22;6376;48.182;-1.644;2022-08-16T00:27:53;22.50;70.90
12622;DHT22;6376;48.182;-1.644;2022-08-16T00:30:20;22.50;71.00
12622;DHT22;6376;48.182;-1.644;2022-08-16T00:32:54;22.50;70.60
12622;DHT22;6376;48.182;-1.644;2022-08-16T00:35:30;22.50;70.80
12622;DHT22;6376;48.182;-1.644;2022-08-16T00:37:57;22.50;70.70
12622;DHT22;6376;48.182;-1.644;2022-08-16T00:40:27;22.50;70.70
12622;DHT22;6376;48.182;-1.644;2022-08-16T00:42:54;22.50;70.50
12622;DHT22;6376;48.182;-1.644;2022-08-16T00:47:56;22.50;70.70
12622;DHT22;6376;48.182;-1.644;2022-08-16T00:50:29;22.50;70.70
12622;DHT22;6376;48.182;-1.644;2022-08-16T00:52:55;22.50;70.80
12622;DHT22;6376;48.182;-1.644;2022-08-16T00:55:22;22.50;70.70
12622;DHT22;6376;48.182;-1.644;2022-08-16T00:57:51;22.50;70.70
12622;DHT22;6376;48.182;-1.644;2022-08-16T01:00:17;22.40;70.70
12622;DHT22;6376;48.182;-1.644;2022-08-16T01:02:43;22.40;70.60
12622;DHT22;6376;48.182;-1.644;2022-08-16T01:05:09;22.40;70.60
12622;DHT22;6376;48.182;-1.644;2022-08-16T01:07:35;22.50;70.90
12622;DHT22;6376;48.182;-1.644;2022-08-16T01:10:02;22.40;70.60
12622;DHT22;6376;48.182;-1.644;2022-08-16T01:12:28;22.40;70.60
12622;DHT22;6376;48.182;-1.644;2022-08-16T01:14:56;22.40;71.50
12622;DHT22;6376;48.182;-1.644;2022-08-16T01:17:23;22.40;70.60
12622;DHT22;6376;48.182;-1.644;2022-08-16T01:19:54;22.40;70.70
12622;DHT22;6376;48.182;-1.644;2022-08-16T01:24:52;22.40;70.60
12622;DHT22;6376;48.182;-1.644;2022-08-16T01:27:25;22.40;70.70
12622;DHT22;6376;48.182;-1.644;2022-08-16T01:30:00;22.40;70.60
12622;DHT22;6376;48.182;-1.644;2022-08-16T01:32:29;22.40;70.80
12622;DHT22;6376;48.182;-1.644;2022-08-16T01:34:56;22.40;70.80
12622;DHT22;6376;48.182;-1.644;2022-08-16T01:37:22;22.40;71.10
12622;DHT22;6376;48.182;-1.644;2022-08-16T01:39:47;22.40;70.90
12622;DHT22;6376;48.182;-1.644;2022-08-16T01:42:13;22.40;71.00
12622;DHT22;6376;48.182;-1.644;2022-08-16T01:44:39;22.30;70.80
12622;DHT22;6376;48.182;-1.644;2022-08-16T01:47:07;22.40;70.70
12622;DHT22;6376;48.182;-1.644;2022-08-16T01:49:36;22.30;70.70
12622;DHT22;6376;48.182;-1.644;2022-08-16T01:52:06;22.30;70.80
12622;DHT22;6376;48.182;-1.644;2022-08-16T01:54:32;22.40;70.80
12622;DHT22;6376;48.182;-1.644;2022-08-16T01:56:59;22.30;70.90
12622;DHT22;6376;48.182;-1.644;2022-08-16T01:59:26;22.30;70.80
12622;DHT22;6376;48.182;-1.644;2022-08-16T02:01:53;22.30;70.90
12622;DHT22;6376;48.182;-1.644;2022-08-16T02:04:21;22.30;70.80
12622;DHT22;6376;48.182;-1.644;2022-08-16T02:06:48;22.30;70.80
12622;DHT22;6376;48.182;-1.644;2022-08-16T02:09:16;22.30;71.00
12622;DHT22;6376;48.182;-1.644;2022-08-16T02:11:45;22.30;70.90
12622;DHT22;6376;48.182;-1.644;2022-08-16T02:14:11;22.30;70.90
12622;DHT22;6376;48.182;-1.644;2022-08-16T02:16:37;22.30;71.20
12622;DHT22;6376;48.182;-1.644;2022-08-16T02:19:04;22.30;71.00
12622;DHT22;6376;48.182;-1.644;2022-08-16T02:21:30;22.30;70.90
12622;DHT22;6376;48.182;-1.644;2022-08-16T02:23:56;22.30;70.90
12622;DHT22;6376;48.182;-1.644;2022-08-16T02:26:22;22.30;70.90
12622;DHT22;6376;48.182;-1.644;2022-08-16T02:28:48;22.30;70.80
12622;DHT22;6376;48.182;-1.644;2022-08-16T02:31:14;22.30;70.90
12622;DHT22;6376;48.182;-1.644;2022-08-16T02:33:41;22.30;70.90
12622;DHT22;6376;48.182;-1.644;2022-08-16T02:36:08;22.30;71.00
12622;DHT22;6376;48.182;-1.644;2022-08-16T02:38:34;22.30;70.90
12622;DHT22;6376;48.182;-1.644;2022-08-16T02:41:01;22.30;71.00
12622;DHT22;6376;48.182;-1.644;2022-08-16T02:43:29;22.30;71.20
12622;DHT22;6376;48.182;-1.644;2022-08-16T02:45:56;22.30;71.00
12622;DHT22;6376;48.182;-1.644;2022-08-16T02:48:22;22.30;71.00
12622;DHT22;6376;48.182;-1.644;2022-08-16T02:50:48;22.30;71.00
12622;DHT22;6376;48.182;-1.644;2022-08-16T02:53:14;22.20;71.10
12622;DHT22;6376;48.182;-1.644;2022-08-16T02:55:39;22.30;71.00
12622;DHT22;6376;48.182;-1.644;2022-08-16T02:58:05;22.20;70.90
12622;DHT22;6376;48.182;-1.644;2022-08-16T03:00:31;22.20;70.90
12622;DHT22;6376;48.182;-1.644;2022-08-16T03:02:57;22.20;70.90
12622;DHT22;6376;48.182;-1.644;2022-08-16T03:05:23;22.20;70.90
12622;DHT22;6376;48.182;-1.644;2022-08-16T03:07:49;22.20;71.00
12622;DHT22;6376;48.182;-1.644;2022-08-16T03:10:15;22.20;71.10
12622;DHT22;6376;48.182;-1.644;2022-08-16T03:12:41;22.20;71.10
12622;DHT22;6376;48.182;-1.644;2022-08-16T03:15:10;22.20;71.10
12622;DHT22;6376;48.182;-1.644;2022-08-16T03:17:37;22.20;71.20
12622;DHT22;6376;48.182;-1.644;2022-08-16T03:20:04;22.20;71.20
12622;DHT22;6376;48.182;-1.644;2022-08-16T03:22:30;22.20;71.20
12622;DHT22;6376;48.182;-1.644;2022-08-16T03:25:01;22.20;71.10
12622;DHT22;6376;48.182;-1.644;2022-08-16T03:27:31;22.20;71.10
12622;DHT22;6376;48.182;-1.644;2022-08-16T03:30:04;22.20;71.20
12622;DHT22;6376;48.182;-1.644;2022-08-16T03:32:30;22.20;71.20
12622;DHT22;6376;48.182;-1.644;2022-08-16T03:34:55;22.20;71.20
12622;DHT22;6376;48.182;-1.644;2022-08-16T03:37:21;22.20;71.20
12622;DHT22;6376;48.182;-1.644;2022-08-16T03:39:47;22.20;71.10
12622;DHT22;6376;48.182;-1.644;2022-08-16T03:42:12;22.20;71.10
12622;DHT22;6376;48.182;-1.644;2022-08-16T03:44:38;22.20;71.20
12622;DHT22;6376;48.182;-1.644;2022-08-16T03:47:03;22.20;71.10
12622;DHT22;6376;48.182;-1.644;2022-08-16T03:49:29;22.20;71.20
12622;DHT22;6376;48.182;-1.644;2022-08-16T03:51:55;22.20;71.30
12622;DHT22;6376;48.182;-1.644;2022-08-16T03:54:21;22.20;71.20
12622;DHT22;6376;48.182;-1.644;2022-08-16T03:56:46;22.20;71.20
12622;DHT22;6376;48.182;-1.644;2022-08-16T03:59:12;22.10;71.20
12622;DHT22;6376;48.182;-1.644;2022-08-16T04:01:38;22.20;71.10
12622;DHT22;6376;48.182;-1.644;2022-08-16T04:04:04;22.20;71.30
12622;DHT22;6376;48.182;-1.644;2022-08-16T04:06:29;22.10;71.10
12622;DHT22;6376;48.182;-1.644;2022-08-16T04:08:55;22.10;71.20
12622;DHT22;6376;48.182;-1.644;2022-08-16T04:11:21;22.10;71.20
12622;DHT22;6376;48.182;-1.644;2022-08-16T04:13:46;22.20;71.20
12622;DHT22;6376;48.182;-1.644;2022-08-16T04:16:12;22.10;71.10
12622;DHT22;6376;48.182;-1.644;2022-08-16T04:18:40;22.10;71.20
12622;DHT22;6376;48.182;-1.644;2022-08-16T04:21:07;22.10;71.40
12622;DHT22;6376;48.182;-1.644;2022-08-16T04:23:33;22.10;71.30
12622;DHT22;6376;48.182;-1.644;2022-08-16T04:26:00;22.10;71.20
12622;DHT22;6376;48.182;-1.644;2022-08-16T04:28:26;22.10;71.30
12622;DHT22;6376;48.182;-1.644;2022-08-16T04:30:52;22.10;71.40
12622;DHT22;6376;48.182;-1.644;2022-08-16T04:33:17;22.10;71.40
12622;DHT22;6376;48.182;-1.644;2022-08-16T04:35:43;22.10;71.30
12622;DHT22;6376;48.182;-1.644;2022-08-16T04:38:09;22.10;71.40
12622;DHT22;6376;48.182;-1.644;2022-08-16T04:40:35;22.10;71.30
12622;DHT22;6376;48.182;-1.644;2022-08-16T04:43:00;22.10;71.40
12622;DHT22;6376;48.182;-1.644;2022-08-16T04:45:27;22.10;71.50
12622;DHT22;6376;48.182;-1.644;2022-08-16T04:47:53;22.10;71.80
12622;DHT22;6376;48.182;-1.644;2022-08-16T04:50:21;22.10;71.60
12622;DHT22;6376;48.182;-1.644;2022-08-16T04:52:49;22.10;71.50
12622;DHT22;6376;48.182;-1.644;2022-08-16T04:55:18;22.10;71.80
12622;DHT22;6376;48.182;-1.644;2022-08-16T04:57:45;22.10;71.70
12622;DHT22;6376;48.182;-1.644;2022-08-16T05:00:16;22.10;71.80
12622;DHT22;6376;48.182;-1.644;2022-08-16T05:02:44;22.10;71.60
12622;DHT22;6376;48.182;-1.644;2022-08-16T05:05:11;22.10;72.10
12622;DHT22;6376;48.182;-1.644;2022-08-16T05:07:37;22.10;71.60
12622;DHT22;6376;48.182;-1.644;2022-08-16T05:10:05;22.10;71.70
12622;DHT22;6376;48.182;-1.644;2022-08-16T05:12:32;22.10;71.60
12622;DHT22;6376;48.182;-1.644;2022-08-16T05:14:57;22.00;71.70
12622;DHT22;6376;48.182;-1.644;2022-08-16T05:17:23;22.10;71.60
12622;DHT22;6376;48.182;-1.644;2022-08-16T05:19:49;22.00;71.70
12622;DHT22;6376;48.182;-1.644;2022-08-16T05:22:15;22.00;71.70
12622;DHT22;6376;48.182;-1.644;2022-08-16T05:24:40;22.00;71.70
12622;DHT22;6376;48.182;-1.644;2022-08-16T05:27:06;22.00;71.60
12622;DHT22;6376;48.182;-1.644;2022-08-16T05:29:32;22.10;71.70
12622;DHT22;6376;48.182;-1.644;2022-08-16T05:31:58;22.00;72.00
12622;DHT22;6376;48.182;-1.644;2022-08-16T05:34:23;22.00;72.00
12622;DHT22;6376;48.182;-1.644;2022-08-16T05:36:49;22.00;71.60
12622;DHT22;6376;48.182;-1.644;2022-08-16T05:39:18;22.10;71.80
12622;DHT22;6376;48.182;-1.644;2022-08-16T05:41:43;22.10;71.70
12622;DHT22;6376;48.182;-1.644;2022-08-16T05:44:09;22.00;71.80
12622;DHT22;6376;48.182;-1.644;2022-08-16T05:46:35;22.10;72.50
12622;DHT22;6376;48.182;-1.644;2022-08-16T05:49:01;22.00;71.60
12622;DHT22;6376;48.182;-1.644;2022-08-16T05:51:28;22.00;71.70
12622;DHT22;6376;48.182;-1.644;2022-08-16T05:53:53;22.00;71.60
12622;DHT22;6376;48.182;-1.644;2022-08-16T05:56:19;22.00;71.50
12622;DHT22;6376;48.182;-1.644;2022-08-16T05:58:45;22.00;72.00
12622;DHT22;6376;48.182;-1.644;2022-08-16T06:01:10;22.10;71.60
12622;DHT22;6376;48.182;-1.644;2022-08-16T06:03:36;22.10;71.80
12622;DHT22;6376;48.182;-1.644;2022-08-16T06:06:02;22.00;71.60
12622;DHT22;6376;48.182;-1.644;2022-08-16T06:08:28;22.00;71.70
12622;DHT22;6376;48.182;-1.644;2022-08-16T06:10:54;22.00;71.70
12622;DHT22;6376;48.182;-1.644;2022-08-16T06:13:20;22.00;71.60
12622;DHT22;6376;48.182;-1.644;2022-08-16T06:15:45;22.00;72.00
12622;DHT22;6376;48.182;-1.644;2022-08-16T06:18:11;22.00;71.70
12622;DHT22;6376;48.182;-1.644;2022-08-16T06:20:37;22.00;72.20
12622;DHT22;6376;48.182;-1.644;2022-08-16T06:23:03;22.00;71.70
12622;DHT22;6376;48.182;-1.644;2022-08-16T06:25:28;22.00;72.30
12622;DHT22;6376;48.182;-1.644;2022-08-16T06:27:54;22.00;71.70
12622;DHT22;6376;48.182;-1.644;2022-08-16T06:30:20;22.00;72.30
12622;DHT22;6376;48.182;-1.644;2022-08-16T06:32:46;22.00;71.70
12622;DHT22;6376;48.182;-1.644;2022-08-16T06:35:12;22.00;72.20
12622;DHT22;6376;48.182;-1.644;2022-08-16T06:37:38;22.00;71.90
12622;DHT22;6376;48.182;-1.644;2022-08-16T06:40:05;22.00;72.20
12622;DHT22;6376;48.182;-1.644;2022-08-16T06:42:31;22.00;72.50
12622;DHT22;6376;48.182;-1.644;2022-08-16T06:44:57;22.00;72.20
12622;DHT22;6376;48.182;-1.644;2022-08-16T06:47:23;22.00;72.50
12622;DHT22;6376;48.182;-1.644;2022-08-16T06:49:49;22.00;72.00
12622;DHT22;6376;48.182;-1.644;2022-08-16T06:52:14;22.00;72.20
12622;DHT22;6376;48.182;-1.644;2022-08-16T06:54:40;22.00;72.70
12622;DHT22;6376;48.182;-1.644;2022-08-16T06:57:07;22.00;72.50
12622;DHT22;6376;48.182;-1.644;2022-08-16T06:59:35;22.00;72.60
12622;DHT22;6376;48.182;-1.644;2022-08-16T07:02:02;22.00;72.40
12622;DHT22;6376;48.182;-1.644;2022-08-16T07:04:28;22.00;72.80
12622;DHT22;6376;48.182;-1.644;2022-08-16T07:06:53;22.00;72.80
12622;DHT22;6376;48.182;-1.644;2022-08-16T07:09:19;22.00;72.70
12622;DHT22;6376;48.182;-1.644;2022-08-16T07:11:46;22.00;72.50
12622;DHT22;6376;48.182;-1.644;2022-08-16T07:14:11;22.00;72.40
12622;DHT22;6376;48.182;-1.644;2022-08-16T07:16:38;22.00;72.70
12622;DHT22;6376;48.182;-1.644;2022-08-16T07:19:07;22.00;72.70
12622;DHT22;6376;48.182;-1.644;2022-08-16T07:21:32;22.00;72.50
12622;DHT22;6376;48.182;-1.644;2022-08-16T07:24:02;22.00;72.30
12622;DHT22;6376;48.182;-1.644;2022-08-16T07:26:29;22.00;72.40
12622;DHT22;6376;48.182;-1.644;2022-08-16T07:28:55;22.00;72.50
12622;DHT22;6376;48.182;-1.644;2022-08-16T07:31:20;22.00;72.60
12622;DHT22;6376;48.182;-1.644;2022-08-16T07:33:46;22.00;72.30
12622;DHT22;6376;48.182;-1.644;2022-08-16T07:36:13;22.00;72.70
12622;DHT22;6376;48.182;-1.644;2022-08-16T07:38:40;22.00;72.50
12622;DHT22;6376;48.182;-1.644;2022-08-16T07:41:06;22.00;72.80
12622;DHT22;6376;48.182;-1.644;2022-08-16T07:43:31;22.00;72.90
12622;DHT22;6376;48.182;-1.644;2022-08-16T07:45:57;22.00;72.80
12622;DHT22;6376;48.182;-1.644;2022-08-16T07:48:24;22.00;73.00
12622;DHT22;6376;48.182;-1.644;2022-08-16T07:50:50;22.00;73.00
12622;DHT22;6376;48.182;-1.644;2022-08-16T07:53:16;22.00;73.20
12622;DHT22;6376;48.182;-1.644;2022-08-16T07:55:42;22.00;72.90
12622;DHT22;6376;48.182;-1.644;2022-08-16T07:58:08;22.00;72.70
12622;DHT22;6376;48.182;-1.644;2022-08-16T08:00:34;22.00;73.90
12622;DHT22;6376;48.182;-1.644;2022-08-16T08:03:04;22.00;73.10
12622;DHT22;6376;48.182;-1.644;2022-08-16T08:05:31;22.00;72.90
12622;DHT22;6376;48.182;-1.644;2022-08-16T08:07:57;22.00;73.00
12622;DHT22;6376;48.182;-1.644;2022-08-16T08:10:26;22.00;73.30
12622;DHT22;6376;48.182;-1.644;2022-08-16T08:12:54;22.00;73.90
12622;DHT22;6376;48.182;-1.644;2022-08-16T08:15:22;22.00;73.40
12622;DHT22;6376;48.182;-1.644;2022-08-16T08:17:49;22.00;73.40
12622;DHT22;6376;48.182;-1.644;2022-08-16T08:20:17;22.00;73.30
12622;DHT22;6376;48.182;-1.644;2022-08-16T08:22:45;22.00;73.20
12622;DHT22;6376;48.182;-1.644;2022-08-16T08:25:12;22.00;73.90
12622;DHT22;6376;48.182;-1.644;2022-08-16T08:27:42;22.00;74.00
12622;DHT22;6376;48.182;-1.644;2022-08-16T08:30:09;22.00;72.70
12622;DHT22;6376;48.182;-1.644;2022-08-16T08:32:36;22.00;73.30
12622;DHT22;6376;48.182;-1.644;2022-08-16T08:35:03;22.00;72.80
12622;DHT22;6376;48.182;-1.644;2022-08-16T08:37:31;22.00;73.30
12622;DHT22;6376;48.182;-1.644;2022-08-16T08:39:57;22.00;73.30
12622;DHT22;6376;48.182;-1.644;2022-08-16T08:42:22;22.00;73.20
12622;DHT22;6376;48.182;-1.644;2022-08-16T08:44:48;22.00;73.60
12622;DHT22;6376;48.182;-1.644;2022-08-16T08:47:14;22.10;74.00
12622;DHT22;6376;48.182;-1.644;2022-08-16T08:49:39;22.10;73.90
12622;DHT22;6376;48.182;-1.644;2022-08-16T08:52:05;22.10;74.30
12622;DHT22;6376;48.182;-1.644;2022-08-16T08:54:31;22.10;73.60
12622;DHT22;6376;48.182;-1.644;2022-08-16T08:56:57;22.10;73.40
12622;DHT22;6376;48.182;-1.644;2022-08-16T08:59:23;22.10;74.00
12622;DHT22;6376;48.182;-1.644;2022-08-16T09:01:49;22.10;73.70
12622;DHT22;6376;48.182;-1.644;2022-08-16T09:04:16;22.30;73.10
12622;DHT22;6376;48.182;-1.644;2022-08-16T09:06:42;22.40;72.60
12622;DHT22;6376;48.182;-1.644;2022-08-16T09:09:08;22.60;71.80
12622;DHT22;6376;48.182;-1.644;2022-08-16T09:11:35;22.60;71.70
12622;DHT22;6376;48.182;-1.644;2022-08-16T09:14:01;22.60;72.10
12622;DHT22;6376;48.182;-1.644;2022-08-16T09:16:27;22.70;71.50
12622;DHT22;6376;48.182;-1.644;2022-08-16T09:18:53;22.80;70.60
12622;DHT22;6376;48.182;-1.644;2022-08-16T09:21:20;22.90;70.50
12622;DHT22;6376;48.182;-1.644;2022-08-16T09:23:46;22.90;70.30
12622;DHT22;6376;48.182;-1.644;2022-08-16T09:26:13;23.30;68.50
12622;DHT22;6376;48.182;-1.644;2022-08-16T09:28:42;23.20;69.10
12622;DHT22;6376;48.182;-1.644;2022-08-16T09:31:11;23.10;69.70
12622;DHT22;6376;48.182;-1.644;2022-08-16T09:33:37;23.10;69.70
12622;DHT22;6376;48.182;-1.644;2022-08-16T09:36:03;23.40;68.60
12622;DHT22;6376;48.182;-1.644;2022-08-16T09:38:29;23.70;68.10
12622;DHT22;6376;48.182;-1.644;2022-08-16T09:40:55;23.60;67.50
12622;DHT22;6376;48.182;-1.644;2022-08-16T09:43:22;23.40;68.20
12622;DHT22;6376;48.182;-1.644;2022-08-16T09:45:49;23.30;68.60
12622;DHT22;6376;48.182;-1.644;2022-08-16T09:48:15;23.20;68.40
12622;DHT22;6376;48.182;-1.644;2022-08-16T09:50:43;23.20;67.90
12622;DHT22;6376;48.182;-1.644;2022-08-16T09:53:14;23.20;68.50
12622;DHT22;6376;48.182;-1.644;2022-08-16T09:55:45;23.20;67.90
12622;DHT22;6376;48.182;-1.644;2022-08-16T09:58:12;23.30;68.00
12622;DHT22;6376;48.182;-1.644;2022-08-16T10:00:37;23.30;67.70
12622;DHT22;6376;48.182;-1.644;2022-08-16T10:03:03;23.30;68.10
12622;DHT22;6376;48.182;-1.644;2022-08-16T10:05:33;23.30;67.30
12622;DHT22;6376;48.182;-1.644;2022-08-16T10:08:03;23.40;67.10
12622;DHT22;6376;48.182;-1.644;2022-08-16T10:10:29;23.40;66.90
12622;DHT22;6376;48.182;-1.644;2022-08-16T10:12:55;23.40;67.00
12622;DHT22;6376;48.182;-1.644;2022-08-16T10:15:44;23.40;66.70
12622;DHT22;6376;48.182;-1.644;2022-08-16T10:18:12;23.50;66.30
12622;DHT22;6376;48.182;-1.644;2022-08-16T10:20:41;23.60;67.00
12622;DHT22;6376;48.182;-1.644;2022-08-16T10:23:13;23.60;66.30
12622;DHT22;6376;48.182;-1.644;2022-08-16T10:25:42;23.60;65.80
12622;DHT22;6376;48.182;-1.644;2022-08-16T10:28:08;23.60;66.10
12622;DHT22;6376;48.182;-1.644;2022-08-16T10:30:35;23.60;65.40
12622;DHT22;6376;48.182;-1.644;2022-08-16T10:33:02;23.70;66.60
12622;DHT22;6376;48.182;-1.644;2022-08-16T10:35:28;23.80;65.50
12622;DHT22;6376;48.182;-1.644;2022-08-16T10:37:54;23.80;65.00
12622;DHT22;6376;48.182;-1.644;2022-08-16T10:40:20;23.80;65.50
12622;DHT22;6376;48.182;-1.644;2022-08-16T10:42:46;23.80;65.40
12622;DHT22;6376;48.182;-1.644;2022-08-16T10:45:14;23.70;65.40
12622;DHT22;6376;48.182;-1.644;2022-08-16T10:47:39;23.70;65.30
12622;DHT22;6376;48.182;-1.644;2022-08-16T10:50:06;23.70;65.30
12622;DHT22;6376;48.182;-1.644;2022-08-16T10:52:32;23.70;65.40
12622;DHT22;6376;48.182;-1.644;2022-08-16T10:54:59;23.80;65.00
12622;DHT22;6376;48.182;-1.644;2022-08-16T10:57:25;23.80;65.40
12622;DHT22;6376;48.182;-1.644;2022-08-16T10:59:52;23.70;65.40
12622;DHT22;6376;48.182;-1.644;2022-08-16T11:02:19;23.80;65.30
12622;DHT22;6376;48.182;-1.644;2022-08-16T11:04:45;23.80;64.80
12622;DHT22;6376;48.182;-1.644;2022-08-16T11:07:10;23.80;64.80
12622;DHT22;6376;48.182;-1.644;2022-08-16T11:09:37;23.80;65.30
12622;DHT22;6376;48.182;-1.644;2022-08-16T11:12:03;23.80;65.10
12622;DHT22;6376;48.182;-1.644;2022-08-16T11:14:30;23.80;65.20
12622;DHT22;6376;48.182;-1.644;2022-08-16T11:16:57;23.80;65.00
12622;DHT22;6376;48.182;-1.644;2022-08-16T11:19:24;23.70;65.50
12622;DHT22;6376;48.182;-1.644;2022-08-16T11:21:50;23.70;65.10
12622;DHT22;6376;48.182;-1.644;2022-08-16T11:24:15;23.70;65.30
12622;DHT22;6376;48.182;-1.644;2022-08-16T11:26:41;23.70;65.60
12622;DHT22;6376;48.182;-1.644;2022-08-16T11:29:07;23.70;65.30
12622;DHT22;6376;48.182;-1.644;2022-08-16T11:31:34;23.70;65.70
12622;DHT22;6376;48.182;-1.644;2022-08-16T11:34:00;23.70;65.30
12622;DHT22;6376;48.182;-1.644;2022-08-16T11:36:26;23.70;65.30
12622;DHT22;6376;48.182;-1.644;2022-08-16T11:38:51;23.80;65.10
12622;DHT22;6376;48.182;-1.644;2022-08-16T11:41:17;23.80;64.90
12622;DHT22;6376;48.182;-1.644;2022-08-16T11:43:43;23.90;64.60
12622;DHT22;6376;48.182;-1.644;2022-08-16T11:46:12;23.80;64.90
12622;DHT22;6376;48.182;-1.644;2022-08-16T11:48:38;23.80;65.10
12622;DHT22;6376;48.182;-1.644;2022-08-16T11:51:04;23.80;64.90
12622;DHT22;6376;48.182;-1.644;2022-08-16T11:53:30;23.80;64.80
12622;DHT22;6376;48.182;-1.644;2022-08-16T11:55:57;23.80;64.90
12622;DHT22;6376;48.182;-1.644;2022-08-16T11:58:25;23.80;65.20
12622;DHT22;6376;48.182;-1.644;2022-08-16T12:00:53;23.80;66.10
12622;DHT22;6376;48.182;-1.644;2022-08-16T12:03:21;23.80;64.90
12622;DHT22;6376;48.182;-1.644;2022-08-16T12:05:48;23.70;64.90
12622;DHT22;6376;48.182;-1.644;2022-08-16T12:08:14;23.70;64.90
12622;DHT22;6376;48.182;-1.644;2022-08-16T12:10:40;23.70;65.30
12622;DHT22;6376;48.182;-1.644;2022-08-16T12:13:07;23.70;65.00
12622;DHT22;6376;48.182;-1.644;2022-08-16T12:15:34;23.70;65.00
12622;DHT22;6376;48.182;-1.644;2022-08-16T12:18:00;23.70;65.20
12622;DHT22;6376;48.182;-1.644;2022-08-16T12:20:30;23.70;65.00
12622;DHT22;6376;48.182;-1.644;2022-08-16T12:22:56;23.70;65.00
12622;DHT22;6376;48.182;-1.644;2022-08-16T12:25:24;23.70;64.90
12622;DHT22;6376;48.182;-1.644;2022-08-16T12:27:51;23.80;64.70
12622;DHT22;6376;48.182;-1.644;2022-08-16T12:30:24;23.90;64.70
12622;DHT22;6376;48.182;-1.644;2022-08-16T12:32:50;23.90;64.60
12622;DHT22;6376;48.182;-1.644;2022-08-16T12:35:18;23.90;64.20
12622;DHT22;6376;48.182;-1.644;2022-08-16T12:37:45;23.90;64.20
12622;DHT22;6376;48.182;-1.644;2022-08-16T12:40:15;23.90;64.40
12622;DHT22;6376;48.182;-1.644;2022-08-16T12:42:42;24.00;64.30
12622;DHT22;6376;48.182;-1.644;2022-08-16T12:45:14;24.00;64.10
12622;DHT22;6376;48.182;-1.644;2022-08-16T12:47:41;24.00;63.90
12622;DHT22;6376;48.182;-1.644;2022-08-16T12:50:25;24.00;64.00
12622;DHT22;6376;48.182;-1.644;2022-08-16T12:52:51;24.10;63.70
12622;DHT22;6376;48.182;-1.644;2022-08-16T12:55:17;24.10;63.70
12622;DHT22;6376;48.182;-1.644;2022-08-16T12:57:42;24.00;63.80
12622;DHT22;6376;48.182;-1.644;2022-08-16T13:00:12;24.00;63.70
12622;DHT22;6376;48.182;-1.644;2022-08-16T13:02:39;24.00;63.70
12622;DHT22;6376;48.182;-1.644;2022-08-16T13:05:06;24.00;63.70
12622;DHT22;6376;48.182;-1.644;2022-08-16T13:07:32;24.00;63.70
12622;DHT22;6376;48.182;-1.644;2022-08-16T13:09:59;24.00;63.70
12622;DHT22;6376;48.182;-1.644;2022-08-16T13:12:35;24.00;63.70
12622;DHT22;6376;48.182;-1.644;2022-08-16T13:15:05;24.00;63.70
12622;DHT22;6376;48.182;-1.644;2022-08-16T13:17:33;24.00;63.70
12622;DHT22;6376;48.182;-1.644;2022-08-16T13:19:58;24.00;63.60
12622;DHT22;6376;48.182;-1.644;2022-08-16T13:22:25;24.00;63.60
12622;DHT22;6376;48.182;-1.644;2022-08-16T13:24:52;24.00;63.70
12622;DHT22;6376;48.182;-1.644;2022-08-16T13:27:18;24.10;63.30
12622;DHT22;6376;48.182;-1.644;2022-08-16T13:29:44;24.00;63.50
12622;DHT22;6376;48.182;-1.644;2022-08-16T13:32:10;24.00;63.40
12622;DHT22;6376;48.182;-1.644;2022-08-16T13:34:37;24.00;63.30
12622;DHT22;6376;48.182;-1.644;2022-08-16T13:37:03;24.00;63.50
12622;DHT22;6376;48.182;-1.644;2022-08-16T13:39:29;24.00;63.40
12622;DHT22;6376;48.182;-1.644;2022-08-16T13:41:56;24.00;63.60
12622;DHT22;6376;48.182;-1.644;2022-08-16T13:44:22;24.00;63.60
12622;DHT22;6376;48.182;-1.644;2022-08-16T13:46:48;24.00;63.50
12622;DHT22;6376;48.182;-1.644;2022-08-16T13:49:14;24.00;63.70
12622;DHT22;6376;48.182;-1.644;2022-08-16T13:51:40;24.00;63.60
12622;DHT22;6376;48.182;-1.644;2022-08-16T13:54:06;24.00;63.70
12622;DHT22;6376;48.182;-1.644;2022-08-16T13:56:34;24.00;63.70
12622;DHT22;6376;48.182;-1.644;2022-08-16T13:59:00;24.00;63.50
12622;DHT22;6376;48.182;-1.644;2022-08-16T14:01:27;24.00;63.60
12622;DHT22;6376;48.182;-1.644;2022-08-16T14:03:53;23.90;63.70
12622;DHT22;6376;48.182;-1.644;2022-08-16T14:06:19;24.00;63.70
12622;DHT22;6376;48.182;-1.644;2022-08-16T14:08:45;23.90;63.70
12622;DHT22;6376;48.182;-1.644;2022-08-16T14:11:13;23.90;63.80
12622;DHT22;6376;48.182;-1.644;2022-08-16T14:13:40;24.00;63.60
12622;DHT22;6376;48.182;-1.644;2022-08-16T14:16:06;24.00;63.60
12622;DHT22;6376;48.182;-1.644;2022-08-16T14:18:32;24.00;63.70
12622;DHT22;6376;48.182;-1.644;2022-08-16T14:20:58;23.90;63.70
12622;DHT22;6376;48.182;-1.644;2022-08-16T14:23:24;23.90;63.80
12622;DHT22;6376;48.182;-1.644;2022-08-16T14:25:50;23.90;63.80
12622;DHT22;6376;48.182;-1.644;2022-08-16T14:28:16;23.90;63.70
12622;DHT22;6376;48.182;-1.644;2022-08-16T14:30:42;23.90;63.70
12622;DHT22;6376;48.182;-1.644;2022-08-16T14:33:09;23.90;63.70
12622;DHT22;6376;48.182;-1.644;2022-08-16T14:35:35;23.90;63.60
12622;DHT22;6376;48.182;-1.644;2022-08-16T14:38:02;23.90;63.70
12622;DHT22;6376;48.182;-1.644;2022-08-16T14:40:27;24.00;63.70
12622;DHT22;6376;48.182;-1.644;2022-08-16T14:42:54;24.00;63.60
12622;DHT22;6376;48.182;-1.644;2022-08-16T14:45:22;24.00;63.60
12622;DHT22;6376;48.182;-1.644;2022-08-16T14:47:48;24.00;63.50
12622;DHT22;6376;48.182;-1.644;2022-08-16T14:50:17;24.00;63.50
12622;DHT22;6376;48.182;-1.644;2022-08-16T14:52:47;24.00;63.50
12622;DHT22;6376;48.182;-1.644;2022-08-16T14:55:14;24.00;63.50
12622;DHT22;6376;48.182;-1.644;2022-08-16T14:57:40;24.00;63.60
12622;DHT22;6376;48.182;-1.644;2022-08-16T15:00:09;24.00;63.40
12622;DHT22;6376;48.182;-1.644;2022-08-16T15:02:35;24.00;63.40
12622;DHT22;6376;48.182;-1.644;2022-08-16T15:05:02;24.00;63.40
12622;DHT22;6376;48.182;-1.644;2022-08-16T15:07:29;24.00;63.40
12622;DHT22;6376;48.182;-1.644;2022-08-16T15:09:55;24.00;63.40
12622;DHT22;6376;48.182;-1.644;2022-08-16T15:12:23;23.90;63.50
12622;DHT22;6376;48.182;-1.644;2022-08-16T15:14:51;24.00;63.60
12622;DHT22;6376;48.182;-1.644;2022-08-16T15:17:22;23.90;63.60
12622;DHT22;6376;48.182;-1.644;2022-08-16T15:19:50;24.00;63.40
12622;DHT22;6376;48.182;-1.644;2022-08-16T15:22:28;24.00;63.40
12622;DHT22;6376;48.182;-1.644;2022-08-16T15:24:56;23.90;63.30
12622;DHT22;6376;48.182;-1.644;2022-08-16T15:27:25;24.00;63.40
12622;DHT22;6376;48.182;-1.644;2022-08-16T15:29:51;24.00;63.70
12622;DHT22;6376;48.182;-1.644;2022-08-16T15:32:16;24.00;63.40